createdAt,value
2019-01-04T00:00:48.954Z,82.90
2019-01-04T00:03:18.549Z,82.60
2019-01-04T00:05:48.168Z,82.50
2019-01-04T00:08:17.784Z,82.80
2019-01-04T00:10:47.384Z,82.80
2019-01-04T00:13:16.991Z,83.10
2019-01-04T00:15:46.583Z,83.20
2019-01-04T00:18:16.196Z,83.00
2019-01-04T00:20:45.819Z,82.80
2019-01-04T00:23:15.411Z,82.90
2019-01-04T00:25:45.047Z,83.00
2019-01-04T00:28:14.665Z,82.90
2019-01-04T00:30:44.323Z,82.80
2019-01-04T00:33:13.935Z,82.40
2019-01-04T00:35:43.532Z,82.40
2019-01-04T00:38:13.154Z,82.30
2019-01-04T00:40:43.720Z,82.30
2019-01-04T00:43:13.338Z,82.40
2019-01-04T00:45:42.938Z,82.40
2019-01-04T00:48:12.538Z,82.20
2019-01-04T00:50:42.163Z,82.30
2019-01-04T00:53:11.780Z,82.50
2019-01-04T00:56:04.370Z,82.50
2019-01-04T00:59:05.844Z,82.70
2019-01-04T01:01:41.702Z,82.90
2019-01-04T01:04:38.670Z,83.30
2019-01-04T01:07:34.330Z,83.40
2019-01-04T01:10:36.119Z,83.20
2019-01-04T01:13:27.006Z,83.30
2019-01-04T01:16:32.980Z,83.70
2019-01-04T01:19:20.594Z,84.00
2019-01-04T01:22:02.276Z,84.10
2019-01-04T01:25:08.383Z,84.10
2019-01-04T01:27:52.736Z,84.40
2019-01-04T01:30:34.112Z,84.80
2019-01-04T01:33:06.977Z,84.90
2019-01-04T01:35:57.934Z,84.90
2019-01-04T01:38:47.341Z,84.90
2019-01-04T01:41:31.995Z,84.90
2019-01-04T01:44:27.176Z,84.60
2019-01-04T01:47:00.055Z,84.40
2019-01-04T01:49:41.959Z,84.40
2019-01-04T01:52:14.842Z,84.50
2019-01-04T01:54:44.434Z,84.60
2019-01-04T01:57:14.059Z,84.80
2019-01-04T01:59:43.663Z,84.90
2019-01-04T02:02:13.275Z,85.00
2019-01-04T02:04:42.883Z,85.10
2019-01-04T02:07:12.551Z,85.00
2019-01-04T02:09:42.172Z,84.80
2019-01-04T02:12:11.784Z,84.50
2019-01-04T02:14:41.404Z,84.50
2019-01-04T02:17:11.002Z,84.60
2019-01-04T02:19:40.618Z,84.60
2019-01-04T02:22:10.980Z,84.50
2019-01-04T02:24:40.606Z,84.30
2019-01-04T02:27:10.224Z,84.40
2019-01-04T02:29:39.830Z,84.20
2019-01-04T02:32:09.445Z,84.20
2019-01-04T02:34:39.062Z,84.00
2019-01-04T02:37:08.669Z,84.00
2019-01-04T02:39:38.285Z,83.90
2019-01-04T02:42:07.971Z,83.50
2019-01-04T02:44:37.612Z,83.90
2019-01-04T02:47:07.222Z,83.90
2019-01-04T02:49:36.849Z,84.00
2019-01-04T02:52:06.463Z,84.10
2019-01-04T02:54:36.065Z,84.00
2019-01-04T02:57:05.679Z,83.70
2019-01-04T02:59:35.306Z,83.80
2019-01-04T03:02:06.655Z,83.60
2019-01-04T03:04:36.240Z,83.60
2019-01-04T03:07:05.852Z,83.50
2019-01-04T03:09:35.489Z,83.20
2019-01-04T03:12:05.110Z,83.20
2019-01-04T03:14:34.739Z,83.30
2019-01-04T03:17:04.343Z,83.00
2019-01-04T03:19:33.944Z,83.20
2019-01-04T03:22:03.549Z,84.00
2019-01-04T03:24:33.142Z,83.90
2019-01-04T03:27:02.763Z,84.10
2019-01-04T03:29:32.356Z,83.90
2019-01-04T03:32:01.980Z,83.60
2019-01-04T03:34:31.588Z,83.80
2019-01-04T03:37:01.239Z,84.00
2019-01-04T03:39:30.881Z,83.80
2019-01-04T03:42:00.472Z,83.70
2019-01-04T03:44:30.103Z,83.90
2019-01-04T03:46:59.758Z,83.90
2019-01-04T03:49:29.366Z,83.60
2019-01-04T03:51:58.969Z,83.40
2019-01-04T03:54:28.579Z,83.40
2019-01-04T03:56:58.174Z,83.60
2019-01-04T03:59:27.789Z,83.60
2019-01-04T04:01:57.389Z,83.40
2019-01-04T04:04:27.004Z,83.40
2019-01-04T04:06:56.613Z,83.80
2019-01-04T04:09:26.237Z,83.40
2019-01-04T04:11:55.827Z,83.70
2019-01-04T04:14:25.439Z,83.50
2019-01-04T04:16:55.047Z,83.30
2019-01-04T04:19:24.666Z,83.60
2019-01-04T04:21:54.277Z,83.70
2019-01-04T04:24:23.900Z,83.50
2019-01-04T04:26:53.503Z,83.80
2019-01-04T04:29:23.136Z,84.00
2019-01-04T04:31:52.740Z,84.00
2019-01-04T04:34:22.391Z,83.90
2019-01-04T04:36:51.995Z,83.80
2019-01-04T04:39:21.590Z,83.80
2019-01-04T04:41:51.196Z,84.10
2019-01-04T04:44:20.804Z,83.90
2019-01-04T04:46:50.419Z,83.90
2019-01-04T04:49:20.016Z,84.00
2019-01-04T04:51:49.623Z,84.00
2019-01-04T04:54:19.223Z,84.00
2019-01-04T04:56:48.840Z,84.10
2019-01-04T04:59:18.432Z,84.10
2019-01-04T05:01:48.047Z,84.10
2019-01-04T05:04:17.831Z,84.00
2019-01-04T05:06:47.507Z,84.20
2019-01-04T05:09:17.109Z,84.40
2019-01-04T05:11:46.731Z,84.20
2019-01-04T05:14:16.386Z,83.70
2019-01-04T05:16:46.040Z,83.80
2019-01-04T05:19:15.640Z,83.80
2019-01-04T05:21:45.248Z,83.90
2019-01-04T05:24:14.847Z,83.60
2019-01-04T05:26:44.463Z,84.00
2019-01-04T05:29:14.063Z,83.90
2019-01-04T05:31:43.722Z,83.90
2019-01-04T05:34:13.321Z,84.90
2019-01-04T05:36:42.939Z,84.20
2019-01-04T05:39:12.538Z,84.80
2019-01-04T05:41:42.164Z,84.00
2019-01-04T05:44:11.783Z,84.10
2019-01-04T05:46:41.395Z,84.20
2019-01-04T05:49:11.007Z,84.30
2019-01-04T05:51:40.607Z,83.90
2019-01-04T05:54:10.219Z,84.00
2019-01-04T05:56:39.824Z,84.30
2019-01-04T05:59:09.446Z,84.60
2019-01-04T06:01:39.051Z,84.40
2019-01-04T06:04:08.675Z,84.40
2019-01-04T06:06:38.311Z,84.40
2019-01-04T06:09:08.293Z,84.50
2019-01-04T06:11:37.891Z,84.20
2019-01-04T06:14:07.504Z,84.10
2019-01-04T06:16:37.104Z,84.60
2019-01-04T06:19:06.738Z,84.60
2019-01-04T06:21:36.331Z,84.40
2019-01-04T06:24:05.921Z,84.20
2019-01-04T06:26:35.539Z,84.20
2019-01-04T06:29:05.142Z,84.10
2019-01-04T06:31:34.756Z,84.20
2019-01-04T06:34:04.356Z,84.50
2019-01-04T06:36:33.964Z,84.60
2019-01-04T06:39:05.252Z,84.70
2019-01-04T06:41:34.862Z,84.60
2019-01-04T06:44:04.464Z,84.50
2019-01-04T06:46:34.080Z,84.50
2019-01-04T06:49:03.682Z,84.90
2019-01-04T06:51:33.316Z,85.00
2019-01-04T06:54:02.922Z,86.30
2019-01-04T06:56:32.541Z,85.30
2019-01-04T06:59:02.163Z,84.10
2019-01-04T07:01:31.767Z,83.30
2019-01-04T07:04:01.386Z,82.80
2019-01-04T07:06:31.005Z,82.20
2019-01-04T07:09:00.613Z,81.90
2019-01-04T07:11:30.288Z,82.00
2019-01-04T07:13:59.896Z,81.80
2019-01-04T07:16:29.670Z,82.70
2019-01-04T07:19:00.888Z,82.90
2019-01-04T07:21:30.492Z,83.00
2019-01-04T07:24:00.106Z,83.10
2019-01-04T07:26:29.722Z,83.10
2019-01-04T07:28:59.348Z,83.10
2019-01-04T07:31:28.974Z,83.10
2019-01-04T07:33:58.612Z,83.20
2019-01-04T07:36:28.230Z,83.40
2019-01-04T07:38:57.837Z,83.90
2019-01-04T07:41:27.483Z,83.90
2019-01-04T07:43:57.103Z,84.00
2019-01-04T07:46:26.715Z,84.20
2019-01-04T07:48:56.323Z,83.90
2019-01-04T07:51:25.926Z,83.90
2019-01-04T07:53:55.542Z,84.00
2019-01-04T07:56:25.145Z,84.00
2019-01-04T07:58:54.743Z,83.80
2019-01-04T08:01:25.340Z,83.60
2019-01-04T08:03:54.970Z,83.60
2019-01-04T08:06:24.632Z,83.50
2019-01-04T08:08:54.217Z,83.80
2019-01-04T08:11:23.833Z,84.30
2019-01-04T08:13:53.457Z,84.40
2019-01-04T08:16:23.085Z,84.60
2019-01-04T08:18:52.687Z,84.60
2019-01-04T08:21:22.313Z,84.30
2019-01-04T08:23:51.930Z,84.80
2019-01-04T08:26:21.552Z,84.90
2019-01-04T08:28:51.160Z,84.40
2019-01-04T08:31:20.787Z,84.20
2019-01-04T08:33:50.395Z,84.30
2019-01-04T08:36:20.016Z,84.20
2019-01-04T08:38:49.643Z,83.90
2019-01-04T08:41:19.235Z,84.30
2019-01-04T08:43:48.848Z,84.20
2019-01-04T08:46:18.455Z,84.20
2019-01-04T08:48:48.071Z,83.70
2019-01-04T08:51:17.697Z,83.60
2019-01-04T08:53:58.431Z,83.80
2019-01-04T08:56:30.784Z,83.20
2019-01-04T08:59:00.395Z,83.10
2019-01-04T09:01:29.994Z,82.70
2019-01-04T09:03:59.603Z,82.60
2019-01-04T09:06:29.230Z,82.90
2019-01-04T09:08:58.826Z,83.00
2019-01-04T09:11:28.436Z,82.80
2019-01-04T09:13:58.043Z,82.70
2019-01-04T09:16:27.736Z,82.80
2019-01-04T09:18:57.351Z,83.00
2019-01-04T09:21:26.960Z,83.20
2019-01-04T09:23:56.580Z,84.30
2019-01-04T09:26:26.206Z,84.80
2019-01-04T09:28:55.794Z,85.40
2019-01-04T09:31:25.418Z,86.00
2019-01-04T09:33:55.020Z,86.40
2019-01-04T09:36:24.642Z,86.90
2019-01-04T09:38:54.247Z,86.50
2019-01-04T09:41:34.961Z,86.50
2019-01-04T09:44:04.657Z,86.70
2019-01-04T09:46:35.262Z,86.10
2019-01-04T09:49:04.864Z,86.00
2019-01-04T09:51:34.485Z,86.20
2019-01-04T09:54:04.110Z,86.30
2019-01-04T09:56:33.742Z,86.70
2019-01-04T09:59:03.372Z,86.70
2019-01-04T10:01:32.996Z,87.00
2019-01-04T10:04:02.617Z,86.60
2019-01-04T10:06:32.228Z,86.40
2019-01-04T10:09:01.846Z,85.90
2019-01-04T10:11:31.513Z,85.90
2019-01-04T10:14:01.142Z,85.40
2019-01-04T10:16:30.748Z,86.20
2019-01-04T10:19:00.366Z,85.90
2019-01-04T10:21:29.974Z,85.50
2019-01-04T10:23:59.620Z,85.30
2019-01-04T10:26:29.214Z,85.40
2019-01-04T10:28:58.828Z,85.70
2019-01-04T10:31:28.448Z,86.20
2019-01-04T10:33:58.077Z,86.10
2019-01-04T10:36:27.681Z,86.00
2019-01-04T10:38:57.285Z,86.10
2019-01-04T10:41:26.902Z,85.80
2019-01-04T10:43:56.510Z,85.40
2019-01-04T10:46:26.132Z,85.30
2019-01-04T10:48:55.737Z,85.00
2019-01-04T10:51:25.344Z,84.70
2019-01-04T10:53:54.950Z,84.40
2019-01-04T10:56:24.573Z,84.40
2019-01-04T10:58:54.171Z,85.00
2019-01-04T11:01:23.798Z,85.30
2019-01-04T11:03:53.416Z,85.20
2019-01-04T11:06:23.032Z,85.20
2019-01-04T11:08:52.661Z,84.80
2019-01-04T11:11:22.266Z,85.40
2019-01-04T11:13:51.900Z,85.60
2019-01-04T11:16:21.505Z,85.20
2019-01-04T11:18:51.122Z,85.30
2019-01-04T11:21:20.742Z,85.00
2019-01-04T11:24:11.570Z,84.80
2019-01-04T11:26:44.914Z,85.00
2019-01-04T11:29:40.320Z,84.70
2019-01-04T11:32:27.586Z,84.90
2019-01-04T11:35:15.233Z,84.90
2019-01-04T11:37:52.524Z,84.70
2019-01-04T11:40:34.348Z,84.10
2019-01-04T11:43:40.578Z,82.90
2019-01-04T11:46:19.248Z,82.90
2019-01-04T11:48:57.243Z,82.90
2019-01-04T11:51:32.784Z,82.80
2019-01-04T11:54:04.906Z,81.60
2019-01-04T11:56:34.517Z,82.30
2019-01-04T11:59:18.052Z,82.70
2019-01-04T12:01:47.662Z,82.00
2019-01-04T12:04:17.268Z,81.30
2019-01-04T12:06:46.888Z,82.10
2019-01-04T12:09:16.489Z,81.90
2019-01-04T12:11:46.115Z,81.20
2019-01-04T12:14:15.711Z,80.80
2019-01-04T12:16:57.944Z,81.60
2019-01-04T12:19:27.545Z,81.90
2019-01-04T12:21:57.228Z,80.70
2019-01-04T12:24:26.849Z,81.10
2019-01-04T12:26:56.463Z,80.90
2019-01-04T12:29:26.060Z,80.40
2019-01-04T12:31:55.683Z,80.60
2019-01-04T12:34:25.298Z,80.80
2019-01-04T12:36:54.931Z,80.40
2019-01-04T12:39:24.538Z,80.10
2019-01-04T12:41:54.169Z,79.50
2019-01-04T12:44:23.788Z,79.60
2019-01-04T12:46:53.389Z,79.60
2019-01-04T12:49:22.999Z,79.80
2019-01-04T12:51:52.607Z,79.90
2019-01-04T12:54:22.215Z,80.00
2019-01-04T12:56:51.818Z,80.60
2019-01-04T12:59:21.440Z,80.90
2019-01-04T13:01:51.046Z,81.00
2019-01-04T13:04:20.655Z,81.10
2019-01-04T13:06:50.267Z,80.90
2019-01-04T13:09:19.898Z,81.20
2019-01-04T13:11:49.499Z,81.10
2019-01-04T13:14:22.665Z,81.50
2019-01-04T13:16:53.751Z,81.80
2019-01-04T13:19:25.755Z,81.30
2019-01-04T13:21:55.691Z,80.80
2019-01-04T13:24:25.317Z,81.00
2019-01-04T13:26:54.921Z,80.70
2019-01-04T13:29:24.552Z,80.00
2019-01-04T13:31:54.173Z,80.90
2019-01-04T13:34:23.811Z,80.30
2019-01-04T13:36:53.417Z,79.50
2019-01-04T13:39:23.045Z,80.60
2019-01-04T13:41:52.661Z,80.80
2019-01-04T13:44:22.267Z,80.10
2019-01-04T13:46:51.904Z,80.40
2019-01-04T13:49:21.507Z,80.80
2019-01-04T13:51:51.166Z,81.10
2019-01-04T13:54:20.774Z,81.20
2019-01-04T13:56:50.388Z,81.30
2019-01-04T13:59:20.002Z,81.70
2019-01-04T14:01:49.633Z,81.50
2019-01-04T14:04:19.320Z,81.40
2019-01-04T14:06:48.958Z,81.60
2019-01-04T14:09:18.553Z,81.20
2019-01-04T14:11:48.172Z,82.10
2019-01-04T14:14:17.771Z,82.00
2019-01-04T14:16:47.395Z,82.70
2019-01-04T14:19:17.015Z,82.80
2019-01-04T14:21:46.615Z,82.80
2019-01-04T14:24:16.337Z,82.80
2019-01-04T14:26:45.938Z,83.40
2019-01-04T14:29:15.551Z,82.80
2019-01-04T14:31:45.193Z,82.40
2019-01-04T14:34:14.851Z,82.90
2019-01-04T14:36:44.457Z,83.30
2019-01-04T14:39:14.085Z,83.40
2019-01-04T14:41:43.675Z,83.60
2019-01-04T14:44:14.368Z,83.80
2019-01-04T14:46:43.985Z,83.90
2019-01-04T14:49:14.670Z,84.30
2019-01-04T14:51:44.348Z,84.70
2019-01-04T14:54:13.973Z,84.60
2019-01-04T14:56:43.587Z,84.90
2019-01-04T14:59:13.220Z,84.30
2019-01-04T15:01:42.839Z,84.90
2019-01-04T15:04:12.449Z,84.80
2019-01-04T15:06:42.061Z,85.00
2019-01-04T15:09:11.845Z,85.00
2019-01-04T15:11:41.470Z,85.00
2019-01-04T15:14:11.073Z,85.10
2019-01-04T15:16:40.687Z,85.10
2019-01-04T15:19:10.299Z,85.40
2019-01-04T15:21:43.034Z,85.10
2019-01-04T15:24:14.266Z,85.30
2019-01-04T15:26:43.900Z,85.30
2019-01-04T15:29:13.495Z,85.50
2019-01-04T15:31:43.126Z,85.20
2019-01-04T15:34:12.753Z,85.50
2019-01-04T15:36:42.363Z,85.40
2019-01-04T15:39:12.057Z,85.30
2019-01-04T15:41:41.720Z,85.10
2019-01-04T15:44:11.359Z,85.10
2019-01-04T15:46:40.965Z,85.00
2019-01-04T15:49:10.579Z,85.10
2019-01-04T15:51:40.188Z,85.50
2019-01-04T15:54:09.902Z,85.50
2019-01-04T15:56:39.565Z,85.30
2019-01-04T15:59:09.183Z,85.30
2019-01-04T16:01:38.867Z,85.50
2019-01-04T16:04:08.565Z,85.60
2019-01-04T16:06:38.182Z,86.10
2019-01-04T16:09:07.797Z,86.20
2019-01-04T16:11:37.473Z,86.20
2019-01-04T16:14:07.103Z,86.70
2019-01-04T16:16:36.714Z,86.50
2019-01-04T16:19:06.333Z,86.90
2019-01-04T16:21:35.957Z,86.90
2019-01-04T16:24:05.566Z,86.80
2019-01-04T16:26:35.197Z,86.70
2019-01-04T16:29:04.826Z,86.70
2019-01-04T16:31:34.491Z,87.80
2019-01-04T16:34:04.113Z,87.00
2019-01-04T16:36:33.735Z,86.40
2019-01-04T16:39:03.431Z,86.60
2019-01-04T16:41:34.113Z,86.70
2019-01-04T16:44:07.256Z,86.80
2019-01-04T16:46:35.052Z,86.50
2019-01-04T16:49:04.647Z,86.40
2019-01-04T16:51:34.353Z,86.20
2019-01-04T16:54:04.009Z,86.10
2019-01-04T16:56:33.700Z,86.10
2019-01-04T16:59:03.332Z,86.10
2019-01-04T17:01:32.932Z,86.40
2019-01-04T17:04:02.670Z,86.10
2019-01-04T17:06:32.306Z,86.20
2019-01-04T17:09:01.917Z,87.00
2019-01-04T17:11:32.547Z,86.20
2019-01-04T17:14:02.234Z,85.80
2019-01-04T17:16:31.835Z,85.60
2019-01-04T17:19:01.487Z,85.50
2019-01-04T17:21:31.143Z,86.10
2019-01-04T17:24:00.795Z,85.60
2019-01-04T17:26:30.456Z,85.30
2019-01-04T17:29:00.098Z,85.60
2019-01-04T17:31:29.721Z,85.80
2019-01-04T17:33:59.331Z,86.40
2019-01-04T17:36:29.675Z,85.70
2019-01-04T17:38:59.309Z,85.60
2019-01-04T17:41:28.922Z,85.60
2019-01-04T17:43:58.529Z,85.10
2019-01-04T17:46:28.159Z,85.30
2019-01-04T17:48:57.765Z,85.30
2019-01-04T17:51:27.378Z,85.50
2019-01-04T17:53:56.984Z,85.30
2019-01-04T17:56:26.595Z,85.60
2019-01-04T17:58:56.212Z,85.30
2019-01-04T18:01:25.840Z,85.20
2019-01-04T18:03:55.458Z,85.30
2019-01-04T18:06:25.067Z,85.20
2019-01-04T18:08:54.676Z,84.90
2019-01-04T18:11:25.507Z,84.80
2019-01-04T18:13:55.120Z,84.90
2019-01-04T18:16:24.759Z,84.80
2019-01-04T18:18:55.208Z,85.00
2019-01-04T18:21:24.829Z,84.70
2019-01-04T18:23:54.428Z,84.90
2019-01-04T18:26:24.493Z,85.30
2019-01-04T18:28:54.937Z,85.40
2019-01-04T18:31:24.580Z,85.20
2019-01-04T18:33:54.236Z,85.20
2019-01-04T18:36:23.888Z,85.40
2019-01-04T18:38:53.562Z,85.40
2019-01-04T18:41:23.172Z,85.40
2019-01-04T18:43:52.856Z,85.50
2019-01-04T18:46:22.496Z,85.40
2019-01-04T18:48:52.150Z,85.50
2019-01-04T18:51:21.845Z,85.60
2019-01-04T18:53:51.478Z,85.70
2019-01-04T18:56:21.102Z,85.60
2019-01-04T18:58:51.889Z,85.80
2019-01-04T19:01:21.543Z,85.80
2019-01-04T19:03:51.161Z,85.90
2019-01-04T19:06:20.766Z,85.80
2019-01-04T19:08:50.468Z,86.00
2019-01-04T19:11:20.095Z,86.10
2019-01-04T19:13:49.795Z,85.90
2019-01-04T19:16:19.437Z,86.10
2019-01-04T19:18:49.086Z,86.50
2019-01-04T19:21:18.712Z,86.50
2019-01-04T19:23:48.400Z,86.30
2019-01-04T19:26:18.016Z,86.10
2019-01-04T19:28:49.326Z,86.10
2019-01-04T19:31:18.973Z,86.00
2019-01-04T19:33:48.592Z,86.20
2019-01-04T19:36:18.232Z,86.10
2019-01-04T19:38:47.828Z,86.10
2019-01-04T19:41:17.505Z,86.20
2019-01-04T19:43:48.767Z,86.30
2019-01-04T19:46:18.412Z,86.40
2019-01-04T19:48:48.016Z,86.10
2019-01-04T19:51:17.639Z,85.70
2019-01-04T19:53:47.319Z,86.00
2019-01-04T19:56:16.931Z,86.10
2019-01-04T19:58:46.571Z,86.20
2019-01-04T20:01:16.240Z,86.20
2019-01-04T20:03:45.872Z,86.30
2019-01-04T20:06:26.497Z,86.80
2019-01-04T20:09:43.135Z,86.30
2019-01-04T20:13:07.352Z,86.50
2019-01-04T20:15:57.345Z,86.70
2019-01-04T20:18:37.713Z,86.70
2019-01-04T20:21:30.159Z,86.70
2019-01-04T20:24:10.308Z,87.00
2019-01-04T20:26:47.643Z,86.90
2019-01-04T20:29:18.903Z,86.80
2019-01-04T20:31:50.162Z,86.60
2019-01-04T20:34:30.454Z,86.60
2019-01-04T20:37:10.886Z,86.70
2019-01-04T20:39:45.011Z,86.60
2019-01-04T20:43:01.472Z,86.70
2019-01-04T20:48:25.040Z,86.30
2019-01-04T20:50:56.315Z,86.50
2019-01-04T20:53:36.607Z,86.90
2019-01-04T20:56:16.873Z,87.20
2019-01-04T20:58:48.115Z,87.60
2019-01-04T21:01:25.572Z,87.80
2019-01-04T21:04:02.957Z,87.90
2019-01-04T21:09:51.953Z,88.60
2019-01-04T21:12:41.638Z,88.40
2019-01-04T21:15:29.407Z,88.90
2019-01-04T21:18:03.443Z,88.70
2019-01-04T21:20:40.914Z,88.50
2019-01-04T21:23:18.465Z,88.90
2019-01-04T21:26:08.147Z,89.40
2019-01-04T21:28:48.542Z,89.80
2019-01-04T21:31:19.787Z,89.60
2019-01-04T21:33:51.062Z,89.50
2019-01-04T21:36:38.907Z,90.10
2019-01-04T21:39:25.680Z,90.00
2019-01-04T21:42:08.966Z,90.40
2019-01-04T21:44:40.237Z,90.60
2019-01-04T21:47:14.555Z,91.10
2019-01-04T21:49:48.717Z,91.60
2019-01-04T21:52:36.206Z,91.00
2019-01-04T21:55:13.239Z,91.30
2019-01-04T21:57:47.189Z,91.70
2019-01-04T22:00:33.727Z,91.80
2019-01-04T22:03:19.787Z,91.80
2019-01-04T22:05:53.620Z,91.80
2019-01-04T22:08:30.456Z,92.00
2019-01-04T22:11:07.479Z,92.30
2019-01-04T22:13:53.707Z,92.40
2019-01-04T22:16:40.856Z,92.20
2019-01-04T22:19:30.190Z,92.60
2019-01-04T22:22:10.393Z,92.70
2019-01-04T22:24:47.689Z,92.40
2019-01-04T22:27:33.944Z,92.40
2019-01-04T22:30:17.993Z,92.40
2019-01-04T22:32:55.007Z,92.10
2019-01-04T22:35:26.248Z,92.10
2019-01-04T22:37:57.566Z,92.20
2019-01-04T22:40:44.965Z,92.00
2019-01-04T22:43:25.281Z,92.20
2019-01-04T22:46:12.685Z,92.40
2019-01-04T22:48:44.009Z,92.30
2019-01-04T22:51:27.138Z,92.00
2019-01-04T22:54:16.354Z,92.10
2019-01-04T22:57:04.004Z,92.00
2019-01-04T22:59:51.300Z,92.10
2019-01-04T23:02:35.577Z,91.80
2019-01-04T23:05:06.958Z,91.80
2019-01-04T23:07:56.578Z,91.70
2019-01-04T23:10:43.059Z,91.70
2019-01-04T23:13:15.320Z,92.00
2019-01-04T23:16:02.700Z,92.10
2019-01-04T23:18:50.516Z,91.90
2019-01-04T23:21:47.220Z,92.00
2019-01-04T23:24:18.524Z,91.90
2019-01-04T23:27:03.272Z,91.70
2019-01-04T23:29:40.521Z,92.10
2019-01-04T23:32:14.705Z,92.00
2019-01-04T23:35:02.192Z,91.80
2019-01-04T23:37:49.754Z,91.70
2019-01-04T23:40:23.959Z,91.60
2019-01-04T23:42:55.194Z,91.60
2019-01-04T23:45:32.223Z,91.50
2019-01-04T23:48:09.207Z,91.40
2019-01-04T23:50:56.679Z,91.40
2019-01-04T23:53:27.949Z,91.40
2019-01-04T23:56:15.458Z,91.30
2019-01-04T23:58:52.587Z,91.50
